PWSweather.com
Personal Weather Stations
Station Observations
REUBENS
Camas Prairie, Reubens, ID

Camas PrairieReubens, ID

Lat: 46.35417, Lon: -116.53167

Elevation: 3480

Station Type: Davis VantagePro 2

http://www.theobrienranch.com/wx/wx.htm

High Low Average
Temperature 41.1°F5.1°C 24.4°F-4.2°C 31.7°F-0.2°C
Dew Point 27.1°F-2.7°C 18.9°F-7.3°C 22.8°F-5.1°C
Winds 14.2 mph 22.9 kmh 1.7 mph 2.7 kmh 9.0 mph SE14.5 kmh SE
Wind Gusts 17.0 mph27.4 kmh 2.0 mph3.2 kmh 11.0 mph17.7 kmh
Humidity 81% 52% 70%
Pressure 30.45 in1031.2 mb 30.34 in1027.4 mb -
Precipitation 0.00 in0.0 mm - -
Hour Temp Dew Point Humidity Winds Wind Gusts Pressure Precip Precip Rate Daily Precip Total
12:00 AM 29.9°F-1.2°C 23.9°F-4.5°C 78% 3.7 mph S6.0 kmh S 5.0 mph8.0 kmh 30.40 in1029.5 mb 0.00 in0.0 mm 0.00 in/hr0.0 mm/hr 0.00 in0.0 mm
12:30 AM 29.8°F-1.2°C 23.5°F-4.7°C 77% 4.6 mph SE7.4 kmh SE 5.0 mph8.0 kmh 30.38 in1028.8 mb 0.00 in0.0 mm 0.00 in/hr0.0 mm/hr 0.00 in0.0 mm
01:00 AM 30.3°F-0.9°C 23.0°F-5.0°C 74% 1.7 mph SSE2.7 kmh SSE 2.0 mph3.2 kmh 30.38 in1028.8 mb 0.00 in0.0 mm 0.00 in/hr0.0 mm/hr 0.00 in0.0 mm
01:30 AM 29.1°F-1.6°C 22.5°F-5.3°C 76% 5.5 mph SSE8.9 kmh SSE 7.0 mph11.3 kmh 30.38 in1028.8 mb 0.00 in0.0 mm 0.00 in/hr0.0 mm/hr 0.00 in0.0 mm
02:00 AM 27.7°F-2.4°C 22.1°F-5.5°C 79% 5.4 mph SSE8.7 kmh SSE 7.0 mph11.3 kmh 30.38 in1028.8 mb 0.00 in0.0 mm 0.00 in/hr0.0 mm/hr 0.00 in0.0 mm
02:30 AM 28.1°F-2.2°C 21.2°F-6.0°C 75% 5.2 mph S8.4 kmh S 6.0 mph9.7 kmh 30.37 in1028.4 mb 0.00 in0.0 mm 0.00 in/hr0.0 mm/hr 0.00 in0.0 mm
03:00 AM 27.8°F-2.3°C 21.2°F-6.0°C 76% 6.0 mph S9.7 kmh S 7.0 mph11.3 kmh 30.36 in1028.1 mb 0.00 in0.0 mm 0.00 in/hr0.0 mm/hr 0.00 in0.0 mm
03:30 AM 27.6°F-2.4°C 21.0°F-6.1°C 76% 9.1 mph S14.6 kmh S 10.0 mph16.1 kmh 30.37 in1028.4 mb 0.00 in0.0 mm 0.00 in/hr0.0 mm/hr 0.00 in0.0 mm
04:00 AM 26.9°F-2.8°C 21.3°F-5.9°C 79% 6.3 mph SSE10.1 kmh SSE 8.0 mph12.9 kmh 30.36 in1028.1 mb 0.00 in0.0 mm 0.00 in/hr0.0 mm/hr 0.00 in0.0 mm
04:30 AM 27.3°F-2.6°C 20.8°F-6.2°C 76% 9.3 mph SE15.0 kmh SE 11.0 mph17.7 kmh 30.38 in1028.8 mb 0.00 in0.0 mm 0.00 in/hr0.0 mm/hr 0.00 in0.0 mm
05:00 AM 25.9°F-3.4°C 20.3°F-6.5°C 79% 7.2 mph SE11.6 kmh SE 10.0 mph16.1 kmh 30.39 in1029.1 mb 0.00 in0.0 mm 0.00 in/hr0.0 mm/hr 0.00 in0.0 mm
05:30 AM 26.8°F-2.9°C 20.8°F-6.2°C 78% 6.6 mph SE10.6 kmh SE 8.0 mph12.9 kmh 30.41 in1029.8 mb 0.00 in0.0 mm 0.00 in/hr0.0 mm/hr 0.00 in0.0 mm
06:00 AM 25.2°F-3.8°C 20.2°F-6.6°C 81% 8.6 mph SE13.8 kmh SE 11.0 mph17.7 kmh 30.42 in1030.1 mb 0.00 in0.0 mm 0.00 in/hr0.0 mm/hr 0.00 in0.0 mm
06:30 AM 26.5°F-3.1°C 20.9°F-6.2°C 79% 12.5 mph SE20.1 kmh SE 14.0 mph22.5 kmh 30.43 in1030.5 mb 0.00 in0.0 mm 0.00 in/hr0.0 mm/hr 0.00 in0.0 mm
07:00 AM 26.1°F-3.3°C 20.1°F-6.6°C 78% 11.7 mph SE18.8 kmh SE 14.0 mph22.5 kmh 30.43 in1030.5 mb 0.00 in0.0 mm 0.00 in/hr0.0 mm/hr 0.00 in0.0 mm
07:30 AM 26.7°F-2.9°C 20.5°F-6.4°C 77% 11.9 mph SE19.2 kmh SE 14.0 mph22.5 kmh 30.43 in1030.5 mb 0.00 in0.0 mm 0.00 in/hr0.0 mm/hr 0.00 in0.0 mm
08:00 AM 24.4°F-4.2°C 18.9°F-7.3°C 79% 10.3 mph SSE16.6 kmh SSE 13.0 mph20.9 kmh 30.44 in1030.8 mb 0.00 in0.0 mm 0.00 in/hr0.0 mm/hr 0.00 in0.0 mm
08:30 AM 27.1°F-2.7°C 19.9°F-6.7°C 74% 6.1 mph SE9.8 kmh SE 11.0 mph17.7 kmh 30.45 in1031.2 mb 0.00 in0.0 mm 0.00 in/hr0.0 mm/hr 0.00 in0.0 mm
09:00 AM 27.4°F-2.6°C 20.5°F-6.4°C 75% 10.1 mph SSE16.3 kmh SSE 12.0 mph19.3 kmh 30.44 in1030.8 mb 0.00 in0.0 mm 0.00 in/hr0.0 mm/hr 0.00 in0.0 mm
09:30 AM 30.3°F-0.9°C 22.0°F-5.6°C 71% 13.8 mph SE22.2 kmh SE 16.0 mph25.7 kmh 30.43 in1030.5 mb 0.00 in0.0 mm 0.00 in/hr0.0 mm/hr 0.00 in0.0 mm
10:00 AM 31.2°F-0.4°C 22.5°F-5.3°C 70% 14.2 mph SE22.9 kmh SE 17.0 mph27.4 kmh 30.43 in1030.5 mb 0.00 in0.0 mm 0.00 in/hr0.0 mm/hr 0.00 in0.0 mm
10:30 AM 32.0°F0.0°C 22.9°F-5.1°C 69% 10.4 mph SE16.7 kmh SE 12.0 mph19.3 kmh 30.41 in1029.8 mb 0.00 in0.0 mm 0.00 in/hr0.0 mm/hr 0.00 in0.0 mm
11:00 AM 32.8°F0.4°C 23.7°F-4.6°C 69% 11.5 mph SE18.5 kmh SE 14.0 mph22.5 kmh 30.41 in1029.8 mb 0.00 in0.0 mm 0.00 in/hr0.0 mm/hr 0.00 in0.0 mm
11:30 AM 34.1°F1.2°C 24.9°F-3.9°C 69% 10.2 mph ESE16.4 kmh ESE 14.0 mph22.5 kmh 30.41 in1029.8 mb 0.00 in0.0 mm 0.00 in/hr0.0 mm/hr 0.00 in0.0 mm
12:00 PM 35.5°F1.9°C 25.6°F-3.6°C 67% 9.0 mph ESE14.5 kmh ESE 12.0 mph19.3 kmh 30.40 in1029.5 mb 0.00 in0.0 mm 0.00 in/hr0.0 mm/hr 0.00 in0.0 mm
12:30 PM 36.4°F2.4°C 25.3°F-3.7°C 64% 12.0 mph SE19.3 kmh SE 15.0 mph24.1 kmh 30.39 in1029.1 mb 0.00 in0.0 mm 0.00 in/hr0.0 mm/hr 0.00 in0.0 mm
01:00 PM 37.7°F3.2°C 24.6°F-4.1°C 59% 9.1 mph ESE14.6 kmh ESE 12.0 mph19.3 kmh 30.38 in1028.8 mb 0.00 in0.0 mm 0.00 in/hr0.0 mm/hr 0.00 in0.0 mm
01:30 PM 39.0°F3.9°C 26.7°F-2.9°C 61% 8.7 mph SE14.0 kmh SE 10.0 mph16.1 kmh 30.37 in1028.4 mb 0.00 in0.0 mm 0.00 in/hr0.0 mm/hr 0.00 in0.0 mm
02:00 PM 39.6°F4.2°C 26.9°F-2.8°C 60% 6.9 mph ESE11.1 kmh ESE 9.0 mph14.5 kmh 30.36 in1028.1 mb 0.00 in0.0 mm 0.00 in/hr0.0 mm/hr 0.00 in0.0 mm
02:30 PM 40.3°F4.6°C 27.1°F-2.7°C 59% 8.9 mph ESE14.3 kmh ESE 11.0 mph17.7 kmh 30.35 in1027.8 mb 0.00 in0.0 mm 0.00 in/hr0.0 mm/hr 0.00 in0.0 mm
03:00 PM 40.8°F4.9°C 26.7°F-2.9°C 57% 10.4 mph ESE16.7 kmh ESE 12.0 mph19.3 kmh 30.35 in1027.8 mb 0.00 in0.0 mm 0.00 in/hr0.0 mm/hr 0.00 in0.0 mm
03:30 PM 40.7°F4.8°C 24.4°F-4.2°C 52% 10.5 mph SE16.9 kmh SE 14.0 mph22.5 kmh 30.34 in1027.4 mb 0.00 in0.0 mm 0.00 in/hr0.0 mm/hr 0.00 in0.0 mm
04:00 PM 41.1°F5.1°C 24.8°F-4.0°C 52% 8.3 mph SSE13.4 kmh SSE 10.0 mph16.1 kmh 30.34 in1027.4 mb 0.00 in0.0 mm 0.00 in/hr0.0 mm/hr 0.00 in0.0 mm
04:30 PM 40.8°F4.9°C 25.0°F-3.9°C 53% 8.6 mph SE13.8 kmh SE 11.0 mph17.7 kmh 30.34 in1027.4 mb 0.00 in0.0 mm 0.00 in/hr0.0 mm/hr 0.00 in0.0 mm
05:00 PM 40.5°F4.7°C 24.7°F-4.1°C 53% 4.3 mph SE6.9 kmh SE 6.0 mph9.7 kmh 30.35 in1027.8 mb 0.00 in0.0 mm 0.00 in/hr0.0 mm/hr 0.00 in0.0 mm
05:30 PM 39.2°F4.0°C 24.8°F-4.0°C 56% 4.4 mph ESE7.1 kmh ESE 5.0 mph8.0 kmh 30.35 in1027.8 mb 0.00 in0.0 mm 0.00 in/hr0.0 mm/hr 0.00 in0.0 mm
06:00 PM 38.4°F3.6°C 23.2°F-4.9°C 54% 4.3 mph SSE6.9 kmh SSE 6.0 mph9.7 kmh 30.36 in1028.1 mb 0.00 in0.0 mm 0.00 in/hr0.0 mm/hr 0.00 in0.0 mm
06:30 PM 36.7°F2.6°C 23.3°F-4.8°C 58% 3.9 mph SSE6.3 kmh SSE 5.0 mph8.0 kmh 30.36 in1028.1 mb 0.00 in0.0 mm 0.00 in/hr0.0 mm/hr 0.00 in0.0 mm
07:00 PM 35.5°F1.9°C 24.1°F-4.4°C 63% 5.0 mph S8.0 kmh S 6.0 mph9.7 kmh 30.35 in1027.8 mb 0.00 in0.0 mm 0.00 in/hr0.0 mm/hr 0.00 in0.0 mm
07:30 PM 35.5°F1.9°C 23.4°F-4.8°C 61% 5.3 mph S8.5 kmh S 8.0 mph12.9 kmh 30.35 in1027.8 mb 0.00 in0.0 mm 0.00 in/hr0.0 mm/hr 0.00 in0.0 mm
08:00 PM 34.1°F1.2°C 23.1°F-4.9°C 64% 1.9 mph S3.1 kmh S 3.0 mph4.8 kmh 30.37 in1028.4 mb 0.00 in0.0 mm 0.00 in/hr0.0 mm/hr 0.00 in0.0 mm
08:30 PM 36.1°F2.3°C 22.7°F-5.2°C 58% 1.1 mph S1.8 kmh S 2.0 mph3.2 kmh 30.35 in1027.8 mb 0.00 in0.0 mm 0.00 in/hr0.0 mm/hr 0.00 in0.0 mm
09:00 PM 34.4°F1.3°C 21.9°F-5.6°C 60% 1.3 mph S2.1 kmh S 2.0 mph3.2 kmh 30.35 in1027.8 mb 0.00 in0.0 mm 0.00 in/hr0.0 mm/hr 0.00 in0.0 mm
09:30 PM 31.3°F-0.4°C 22.3°F-5.4°C 69% 4.4 mph E7.1 kmh E 5.0 mph8.0 kmh 30.35 in1027.8 mb 0.00 in0.0 mm 0.00 in/hr0.0 mm/hr 0.00 in0.0 mm
10:00 PM 30.9°F-0.6°C 22.3°F-5.4°C 70% 5.6 mph E9.0 kmh E 6.0 mph9.7 kmh 30.35 in1027.8 mb 0.00 in0.0 mm 0.00 in/hr0.0 mm/hr 0.00 in0.0 mm
10:30 PM 30.9°F-0.6°C 22.6°F-5.2°C 71% 10.1 mph ESE16.3 kmh ESE 11.0 mph17.7 kmh 30.34 in1027.4 mb 0.00 in0.0 mm 0.00 in/hr0.0 mm/hr 0.00 in0.0 mm
11:00 PM 30.8°F-0.7°C 22.5°F-5.3°C 71% 8.6 mph ESE13.8 kmh ESE 10.0 mph16.1 kmh 30.34 in1027.4 mb 0.00 in0.0 mm 0.00 in/hr0.0 mm/hr 0.00 in0.0 mm
11:30 PM 31.9°F-0.1°C 22.5°F-5.3°C 68% 10.1 mph SSE16.3 kmh SSE 13.0 mph20.9 kmh 30.33 in1027.1 mb 0.00 in0.0 mm 0.00 in/hr0.0 mm/hr 0.00 in0.0 mm